sensor_id;sensor_type;location;lat;lon;timestamp;P1;durP1;ratioP1;P2;durP2;ratioP2
13855;SDS011;6998;53.608;9.958;2022-10-15T00:00:44;14.15;;;12.55;;
13855;SDS011;6998;53.608;9.958;2022-10-15T00:03:11;14.80;;;12.80;;
13855;SDS011;6998;53.608;9.958;2022-10-15T00:05:40;14.93;;;13.45;;
13855;SDS011;6998;53.608;9.958;2022-10-15T00:08:08;13.90;;;12.48;;
13855;SDS011;6998;53.608;9.958;2022-10-15T00:10:35;14.40;;;12.85;;
13855;SDS011;6998;53.608;9.958;2022-10-15T00:13:02;14.43;;;13.02;;
13855;SDS011;6998;53.608;9.958;2022-10-15T00:15:29;14.80;;;13.27;;
13855;SDS011;6998;53.608;9.958;2022-10-15T00:17:56;17.40;;;15.15;;
13855;SDS011;6998;53.608;9.958;2022-10-15T00:20:23;18.83;;;14.75;;
13855;SDS011;6998;53.608;9.958;2022-10-15T00:22:51;18.92;;;15.20;;
13855;SDS011;6998;53.608;9.958;2022-10-15T00:25:18;19.00;;;15.45;;
13855;SDS011;6998;53.608;9.958;2022-10-15T00:27:45;17.40;;;14.82;;
13855;SDS011;6998;53.608;9.958;2022-10-15T00:30:12;15.98;;;14.27;;
13855;SDS011;6998;53.608;9.958;2022-10-15T00:32:38;16.20;;;14.38;;
13855;SDS011;6998;53.608;9.958;2022-10-15T00:35:05;17.02;;;15.25;;
13855;SDS011;6998;53.608;9.958;2022-10-15T00:37:33;15.98;;;14.23;;
13855;SDS011;6998;53.608;9.958;2022-10-15T00:40:01;19.85;;;15.60;;
13855;SDS011;6998;53.608;9.958;2022-10-15T00:42:28;16.45;;;14.30;;
13855;SDS011;6998;53.608;9.958;2022-10-15T00:44:55;18.75;;;14.82;;
13855;SDS011;6998;53.608;9.958;2022-10-15T00:47:25;16.45;;;14.65;;
13855;SDS011;6998;53.608;9.958;2022-10-15T00:49:55;17.83;;;16.00;;
13855;SDS011;6998;53.608;9.958;2022-10-15T00:52:26;18.75;;;16.55;;
13855;SDS011;6998;53.608;9.958;2022-10-15T00:54:58;18.13;;;16.23;;
13855;SDS011;6998;53.608;9.958;2022-10-15T00:57:31;21.60;;;18.05;;
13855;SDS011;6998;53.608;9.958;2022-10-15T01:00:00;19.80;;;17.38;;
13855;SDS011;6998;53.608;9.958;2022-10-15T01:02:30;20.52;;;18.25;;
13855;SDS011;6998;53.608;9.958;2022-10-15T01:04:57;21.08;;;17.73;;
13855;SDS011;6998;53.608;9.958;2022-10-15T01:07:23;22.20;;;18.00;;
13855;SDS011;6998;53.608;9.958;2022-10-15T01:09:50;21.38;;;19.08;;
13855;SDS011;6998;53.608;9.958;2022-10-15T01:12:22;22.23;;;19.50;;
13855;SDS011;6998;53.608;9.958;2022-10-15T01:14:57;22.08;;;18.70;;
13855;SDS011;6998;53.608;9.958;2022-10-15T01:17:34;23.17;;;19.70;;
13855;SDS011;6998;53.608;9.958;2022-10-15T01:20:16;21.20;;;18.95;;
13855;SDS011;6998;53.608;9.958;2022-10-15T01:22:57;21.92;;;19.58;;
13855;SDS011;6998;53.608;9.958;2022-10-15T01:25:41;23.70;;;20.40;;
13855;SDS011;6998;53.608;9.958;2022-10-15T01:28:22;21.48;;;19.17;;
13855;SDS011;6998;53.608;9.958;2022-10-15T01:30:58;25.05;;;21.27;;
13855;SDS011;6998;53.608;9.958;2022-10-15T01:33:31;24.33;;;21.70;;
13855;SDS011;6998;53.608;9.958;2022-10-15T01:36:04;23.30;;;20.80;;
13855;SDS011;6998;53.608;9.958;2022-10-15T01:38:43;22.27;;;19.92;;
13855;SDS011;6998;53.608;9.958;2022-10-15T01:41:15;26.20;;;22.20;;
13855;SDS011;6998;53.608;9.958;2022-10-15T01:43:49;25.27;;;21.02;;
13855;SDS011;6998;53.608;9.958;2022-10-15T01:46:23;24.02;;;21.42;;
13855;SDS011;6998;53.608;9.958;2022-10-15T01:48:54;26.63;;;22.67;;
13855;SDS011;6998;53.608;9.958;2022-10-15T01:51:23;25.98;;;22.23;;
13855;SDS011;6998;53.608;9.958;2022-10-15T01:53:51;25.40;;;21.30;;
13855;SDS011;6998;53.608;9.958;2022-10-15T01:56:20;24.83;;;22.15;;
13855;SDS011;6998;53.608;9.958;2022-10-15T01:58:48;25.55;;;22.70;;
13855;SDS011;6998;53.608;9.958;2022-10-15T02:01:17;23.88;;;20.58;;
13855;SDS011;6998;53.608;9.958;2022-10-15T02:03:49;24.65;;;20.83;;
13855;SDS011;6998;53.608;9.958;2022-10-15T02:06:19;23.10;;;20.55;;
13855;SDS011;6998;53.608;9.958;2022-10-15T02:08:55;29.00;;;23.13;;
13855;SDS011;6998;53.608;9.958;2022-10-15T02:11:26;27.38;;;21.90;;
13855;SDS011;6998;53.608;9.958;2022-10-15T02:13:56;25.05;;;21.13;;
13855;SDS011;6998;53.608;9.958;2022-10-15T02:16:26;25.63;;;22.88;;
13855;SDS011;6998;53.608;9.958;2022-10-15T02:18:58;26.58;;;22.42;;
13855;SDS011;6998;53.608;9.958;2022-10-15T02:21:31;26.40;;;23.40;;
13855;SDS011;6998;53.608;9.958;2022-10-15T02:24:04;26.60;;;23.65;;
13855;SDS011;6998;53.608;9.958;2022-10-15T02:26:35;30.00;;;23.55;;
13855;SDS011;6998;53.608;9.958;2022-10-15T02:29:04;30.25;;;23.20;;
13855;SDS011;6998;53.608;9.958;2022-10-15T02:31:34;27.08;;;23.48;;
13855;SDS011;6998;53.608;9.958;2022-10-15T02:34:06;30.77;;;23.15;;
13855;SDS011;6998;53.608;9.958;2022-10-15T02:36:36;32.90;;;25.08;;
13855;SDS011;6998;53.608;9.958;2022-10-15T02:39:06;28.33;;;23.67;;
13855;SDS011;6998;53.608;9.958;2022-10-15T02:41:36;31.25;;;24.27;;
13855;SDS011;6998;53.608;9.958;2022-10-15T02:44:04;26.20;;;22.58;;
13855;SDS011;6998;53.608;9.958;2022-10-15T02:46:31;26.90;;;23.05;;
13855;SDS011;6998;53.608;9.958;2022-10-15T02:48:58;29.88;;;23.25;;
13855;SDS011;6998;53.608;9.958;2022-10-15T02:51:26;29.67;;;22.75;;
13855;SDS011;6998;53.608;9.958;2022-10-15T02:53:56;32.15;;;24.52;;
13855;SDS011;6998;53.608;9.958;2022-10-15T02:56:24;29.52;;;24.75;;
13855;SDS011;6998;53.608;9.958;2022-10-15T02:58:51;28.80;;;23.67;;
13855;SDS011;6998;53.608;9.958;2022-10-15T03:01:18;24.15;;;20.23;;
13855;SDS011;6998;53.608;9.958;2022-10-15T03:03:44;30.85;;;24.98;;
13855;SDS011;6998;53.608;9.958;2022-10-15T03:06:11;30.38;;;22.83;;
13855;SDS011;6998;53.608;9.958;2022-10-15T03:08:39;32.95;;;25.70;;
13855;SDS011;6998;53.608;9.958;2022-10-15T03:11:07;29.73;;;24.13;;
13855;SDS011;6998;53.608;9.958;2022-10-15T03:13:34;28.85;;;23.52;;
13855;SDS011;6998;53.608;9.958;2022-10-15T03:16:03;31.05;;;23.10;;
13855;SDS011;6998;53.608;9.958;2022-10-15T03:18:30;29.67;;;23.85;;
13855;SDS011;6998;53.608;9.958;2022-10-15T03:20:57;27.45;;;22.90;;
13855;SDS011;6998;53.608;9.958;2022-10-15T03:23:24;28.45;;;22.88;;
13855;SDS011;6998;53.608;9.958;2022-10-15T03:25:53;30.02;;;23.75;;
13855;SDS011;6998;53.608;9.958;2022-10-15T03:28:20;26.52;;;22.23;;
13855;SDS011;6998;53.608;9.958;2022-10-15T03:30:47;28.75;;;24.15;;
13855;SDS011;6998;53.608;9.958;2022-10-15T03:33:14;25.77;;;21.90;;
13855;SDS011;6998;53.608;9.958;2022-10-15T03:35:41;28.67;;;22.88;;
13855;SDS011;6998;53.608;9.958;2022-10-15T03:38:07;24.90;;;19.90;;
13855;SDS011;6998;53.608;9.958;2022-10-15T03:40:34;24.60;;;19.23;;
13855;SDS011;6998;53.608;9.958;2022-10-15T03:43:02;25.73;;;20.52;;
13855;SDS011;6998;53.608;9.958;2022-10-15T03:45:29;23.10;;;18.35;;
13855;SDS011;6998;53.608;9.958;2022-10-15T03:47:57;29.73;;;21.00;;
13855;SDS011;6998;53.608;9.958;2022-10-15T03:50:23;30.42;;;21.80;;
13855;SDS011;6998;53.608;9.958;2022-10-15T03:52:50;27.05;;;21.25;;
13855;SDS011;6998;53.608;9.958;2022-10-15T03:55:17;28.15;;;21.27;;
13855;SDS011;6998;53.608;9.958;2022-10-15T03:57:44;25.05;;;20.80;;
13855;SDS011;6998;53.608;9.958;2022-10-15T04:00:12;29.13;;;22.05;;
13855;SDS011;6998;53.608;9.958;2022-10-15T04:02:40;29.80;;;22.50;;
13855;SDS011;6998;53.608;9.958;2022-10-15T04:05:07;26.45;;;21.33;;
13855;SDS011;6998;53.608;9.958;2022-10-15T04:07:34;26.50;;;19.92;;
13855;SDS011;6998;53.608;9.958;2022-10-15T04:10:01;33.53;;;22.55;;
13855;SDS011;6998;53.608;9.958;2022-10-15T04:12:28;37.33;;;24.05;;
13855;SDS011;6998;53.608;9.958;2022-10-15T04:14:55;26.23;;;20.08;;
13855;SDS011;6998;53.608;9.958;2022-10-15T04:17:23;28.63;;;21.13;;
13855;SDS011;6998;53.608;9.958;2022-10-15T04:19:49;31.88;;;22.00;;
13855;SDS011;6998;53.608;9.958;2022-10-15T04:22:16;34.95;;;22.20;;
13855;SDS011;6998;53.608;9.958;2022-10-15T04:24:43;34.30;;;23.10;;
13855;SDS011;6998;53.608;9.958;2022-10-15T04:27:10;27.67;;;20.30;;
13855;SDS011;6998;53.608;9.958;2022-10-15T04:29:37;26.17;;;20.65;;
13855;SDS011;6998;53.608;9.958;2022-10-15T04:32:04;30.33;;;22.15;;
13855;SDS011;6998;53.608;9.958;2022-10-15T04:34:32;34.80;;;24.48;;
13855;SDS011;6998;53.608;9.958;2022-10-15T04:36:59;37.58;;;25.23;;
13855;SDS011;6998;53.608;9.958;2022-10-15T04:39:25;38.63;;;26.15;;
13855;SDS011;6998;53.608;9.958;2022-10-15T04:41:52;38.72;;;24.65;;
13855;SDS011;6998;53.608;9.958;2022-10-15T04:44:19;38.97;;;26.08;;
13855;SDS011;6998;53.608;9.958;2022-10-15T04:46:45;34.22;;;23.67;;
13855;SDS011;6998;53.608;9.958;2022-10-15T04:49:12;41.03;;;27.08;;
13855;SDS011;6998;53.608;9.958;2022-10-15T04:51:40;39.50;;;25.08;;
13855;SDS011;6998;53.608;9.958;2022-10-15T04:54:07;41.10;;;27.02;;
13855;SDS011;6998;53.608;9.958;2022-10-15T04:56:34;42.13;;;26.50;;
13855;SDS011;6998;53.608;9.958;2022-10-15T04:59:00;40.90;;;27.02;;
13855;SDS011;6998;53.608;9.958;2022-10-15T05:01:31;41.45;;;26.10;;
13855;SDS011;6998;53.608;9.958;2022-10-15T05:03:57;43.42;;;26.85;;
13855;SDS011;6998;53.608;9.958;2022-10-15T05:06:24;38.45;;;25.70;;
13855;SDS011;6998;53.608;9.958;2022-10-15T05:08:52;36.00;;;25.45;;
13855;SDS011;6998;53.608;9.958;2022-10-15T05:11:20;39.30;;;26.85;;
13855;SDS011;6998;53.608;9.958;2022-10-15T05:13:48;39.53;;;25.95;;
13855;SDS011;6998;53.608;9.958;2022-10-15T05:16:16;34.72;;;23.80;;
13855;SDS011;6998;53.608;9.958;2022-10-15T05:18:45;39.58;;;27.00;;
13855;SDS011;6998;53.608;9.958;2022-10-15T05:21:12;40.60;;;27.08;;
13855;SDS011;6998;53.608;9.958;2022-10-15T05:23:40;45.45;;;27.90;;
13855;SDS011;6998;53.608;9.958;2022-10-15T05:26:10;42.80;;;27.58;;
13855;SDS011;6998;53.608;9.958;2022-10-15T05:28:39;44.25;;;27.30;;
13855;SDS011;6998;53.608;9.958;2022-10-15T05:31:06;42.58;;;27.95;;
13855;SDS011;6998;53.608;9.958;2022-10-15T05:33:34;47.47;;;28.92;;
13855;SDS011;6998;53.608;9.958;2022-10-15T05:36:08;41.10;;;27.67;;
13855;SDS011;6998;53.608;9.958;2022-10-15T05:38:35;51.15;;;30.35;;
13855;SDS011;6998;53.608;9.958;2022-10-15T05:41:02;38.92;;;26.88;;
13855;SDS011;6998;53.608;9.958;2022-10-15T05:43:30;45.17;;;28.30;;
13855;SDS011;6998;53.608;9.958;2022-10-15T05:45:57;47.97;;;29.33;;
13855;SDS011;6998;53.608;9.958;2022-10-15T05:48:24;45.15;;;29.67;;
13855;SDS011;6998;53.608;9.958;2022-10-15T05:50:50;46.42;;;30.63;;
13855;SDS011;6998;53.608;9.958;2022-10-15T05:53:17;48.17;;;29.52;;
13855;SDS011;6998;53.608;9.958;2022-10-15T05:55:44;46.88;;;30.02;;
13855;SDS011;6998;53.608;9.958;2022-10-15T05:58:11;49.67;;;31.08;;
13855;SDS011;6998;53.608;9.958;2022-10-15T06:00:39;42.40;;;29.00;;
13855;SDS011;6998;53.608;9.958;2022-10-15T06:03:08;44.88;;;29.98;;
13855;SDS011;6998;53.608;9.958;2022-10-15T06:05:37;45.30;;;30.80;;
13855;SDS011;6998;53.608;9.958;2022-10-15T06:08:04;45.92;;;31.00;;
13855;SDS011;6998;53.608;9.958;2022-10-15T06:10:33;51.17;;;31.23;;
13855;SDS011;6998;53.608;9.958;2022-10-15T06:13:01;53.35;;;32.35;;
13855;SDS011;6998;53.608;9.958;2022-10-15T06:15:28;46.47;;;31.20;;
13855;SDS011;6998;53.608;9.958;2022-10-15T06:17:57;48.22;;;31.00;;
13855;SDS011;6998;53.608;9.958;2022-10-15T06:20:23;52.08;;;33.30;;
13855;SDS011;6998;53.608;9.958;2022-10-15T06:22:50;57.97;;;34.35;;
13855;SDS011;6998;53.608;9.958;2022-10-15T06:25:21;48.25;;;31.73;;
13855;SDS011;6998;53.608;9.958;2022-10-15T06:27:48;52.10;;;33.10;;
13855;SDS011;6998;53.608;9.958;2022-10-15T06:30:14;51.25;;;31.73;;
13855;SDS011;6998;53.608;9.958;2022-10-15T06:32:45;44.65;;;31.33;;
13855;SDS011;6998;53.608;9.958;2022-10-15T06:35:14;42.88;;;29.48;;
13855;SDS011;6998;53.608;9.958;2022-10-15T06:37:41;50.00;;;32.33;;
13855;SDS011;6998;53.608;9.958;2022-10-15T06:40:08;47.72;;;32.75;;
13855;SDS011;6998;53.608;9.958;2022-10-15T06:42:36;45.75;;;31.85;;
13855;SDS011;6998;53.608;9.958;2022-10-15T06:45:03;43.10;;;30.40;;
13855;SDS011;6998;53.608;9.958;2022-10-15T06:47:30;44.83;;;31.17;;
13855;SDS011;6998;53.608;9.958;2022-10-15T06:49:57;51.55;;;32.92;;
13855;SDS011;6998;53.608;9.958;2022-10-15T06:52:25;49.33;;;32.83;;
13855;SDS011;6998;53.608;9.958;2022-10-15T06:54:54;47.63;;;31.20;;
13855;SDS011;6998;53.608;9.958;2022-10-15T06:57:21;48.17;;;32.40;;
13855;SDS011;6998;53.608;9.958;2022-10-15T06:59:49;46.90;;;32.03;;
13855;SDS011;6998;53.608;9.958;2022-10-15T07:02:16;42.88;;;29.88;;
13855;SDS011;6998;53.608;9.958;2022-10-15T07:04:43;53.58;;;31.02;;
13855;SDS011;6998;53.608;9.958;2022-10-15T07:07:11;41.28;;;29.80;;
13855;SDS011;6998;53.608;9.958;2022-10-15T07:09:39;41.97;;;30.08;;
13855;SDS011;6998;53.608;9.958;2022-10-15T07:12:06;48.85;;;31.27;;
13855;SDS011;6998;53.608;9.958;2022-10-15T07:14:32;47.45;;;31.05;;
13855;SDS011;6998;53.608;9.958;2022-10-15T07:16:59;46.95;;;31.13;;
13855;SDS011;6998;53.608;9.958;2022-10-15T07:19:26;44.25;;;30.88;;
13855;SDS011;6998;53.608;9.958;2022-10-15T07:21:53;43.55;;;29.83;;
13855;SDS011;6998;53.608;9.958;2022-10-15T07:24:19;42.97;;;29.23;;
13855;SDS011;6998;53.608;9.958;2022-10-15T07:26:48;43.00;;;29.48;;
13855;SDS011;6998;53.608;9.958;2022-10-15T07:29:14;47.08;;;29.55;;
13855;SDS011;6998;53.608;9.958;2022-10-15T07:31:41;43.40;;;29.83;;
13855;SDS011;6998;53.608;9.958;2022-10-15T07:34:08;43.45;;;29.50;;
13855;SDS011;6998;53.608;9.958;2022-10-15T07:36:35;43.80;;;29.38;;
13855;SDS011;6998;53.608;9.958;2022-10-15T07:39:02;40.10;;;28.65;;
13855;SDS011;6998;53.608;9.958;2022-10-15T07:41:29;40.63;;;28.80;;
13855;SDS011;6998;53.608;9.958;2022-10-15T07:43:57;38.38;;;27.10;;
13855;SDS011;6998;53.608;9.958;2022-10-15T07:46:24;41.47;;;28.10;;
13855;SDS011;6998;53.608;9.958;2022-10-15T07:48:51;40.50;;;27.15;;
13855;SDS011;6998;53.608;9.958;2022-10-15T07:51:18;42.13;;;26.92;;
13855;SDS011;6998;53.608;9.958;2022-10-15T07:53:44;45.78;;;28.70;;
13855;SDS011;6998;53.608;9.958;2022-10-15T07:56:12;40.58;;;27.25;;
13855;SDS011;6998;53.608;9.958;2022-10-15T07:58:40;38.28;;;25.90;;
13855;SDS011;6998;53.608;9.958;2022-10-15T08:01:09;37.97;;;27.02;;
13855;SDS011;6998;53.608;9.958;2022-10-15T08:03:36;34.42;;;24.88;;
13855;SDS011;6998;53.608;9.958;2022-10-15T08:06:04;38.88;;;26.13;;
13855;SDS011;6998;53.608;9.958;2022-10-15T08:08:32;35.88;;;24.98;;
13855;SDS011;6998;53.608;9.958;2022-10-15T08:11:03;34.60;;;24.42;;
13855;SDS011;6998;53.608;9.958;2022-10-15T08:13:30;31.33;;;24.27;;
13855;SDS011;6998;53.608;9.958;2022-10-15T08:15:57;33.53;;;24.42;;
13855;SDS011;6998;53.608;9.958;2022-10-15T08:18:25;32.45;;;24.30;;
13855;SDS011;6998;53.608;9.958;2022-10-15T08:20:52;34.85;;;25.55;;
13855;SDS011;6998;53.608;9.958;2022-10-15T08:23:19;33.80;;;24.73;;
13855;SDS011;6998;53.608;9.958;2022-10-15T08:25:46;34.95;;;24.98;;
13855;SDS011;6998;53.608;9.958;2022-10-15T08:28:12;38.20;;;24.27;;
13855;SDS011;6998;53.608;9.958;2022-10-15T08:30:39;38.67;;;25.55;;
13855;SDS011;6998;53.608;9.958;2022-10-15T08:33:06;37.00;;;24.70;;
13855;SDS011;6998;53.608;9.958;2022-10-15T08:35:34;32.20;;;22.80;;
13855;SDS011;6998;53.608;9.958;2022-10-15T08:38:03;33.42;;;25.42;;
13855;SDS011;6998;53.608;9.958;2022-10-15T08:40:30;35.08;;;25.08;;
13855;SDS011;6998;53.608;9.958;2022-10-15T08:42:56;37.78;;;25.50;;
13855;SDS011;6998;53.608;9.958;2022-10-15T08:45:24;33.22;;;24.63;;
13855;SDS011;6998;53.608;9.958;2022-10-15T08:47:56;35.47;;;25.05;;
13855;SDS011;6998;53.608;9.958;2022-10-15T08:50:35;35.53;;;24.38;;
13855;SDS011;6998;53.608;9.958;2022-10-15T08:53:09;31.33;;;23.05;;
13855;SDS011;6998;53.608;9.958;2022-10-15T08:55:39;33.17;;;22.90;;
13855;SDS011;6998;53.608;9.958;2022-10-15T08:58:11;32.70;;;24.92;;
13855;SDS011;6998;53.608;9.958;2022-10-15T09:00:42;30.88;;;23.02;;
13855;SDS011;6998;53.608;9.958;2022-10-15T09:03:22;29.05;;;23.25;;
13855;SDS011;6998;53.608;9.958;2022-10-15T09:05:59;32.60;;;22.08;;
13855;SDS011;6998;53.608;9.958;2022-10-15T09:08:34;30.05;;;22.08;;
13855;SDS011;6998;53.608;9.958;2022-10-15T09:11:06;32.45;;;22.08;;
13855;SDS011;6998;53.608;9.958;2022-10-15T09:13:42;30.52;;;22.08;;
13855;SDS011;6998;53.608;9.958;2022-10-15T09:16:11;28.35;;;21.27;;
13855;SDS011;6998;53.608;9.958;2022-10-15T09:18:41;29.30;;;20.88;;
13855;SDS011;6998;53.608;9.958;2022-10-15T09:21:13;26.42;;;20.65;;
13855;SDS011;6998;53.608;9.958;2022-10-15T09:23:41;26.45;;;18.70;;
13855;SDS011;6998;53.608;9.958;2022-10-15T09:26:14;22.52;;;17.08;;
13855;SDS011;6998;53.608;9.958;2022-10-15T09:28:51;23.52;;;17.92;;
13855;SDS011;6998;53.608;9.958;2022-10-15T09:31:27;25.02;;;17.67;;
13855;SDS011;6998;53.608;9.958;2022-10-15T09:33:58;27.58;;;18.00;;
13855;SDS011;6998;53.608;9.958;2022-10-15T09:36:35;23.08;;;16.65;;
13855;SDS011;6998;53.608;9.958;2022-10-15T09:39:14;24.10;;;18.00;;
13855;SDS011;6998;53.608;9.958;2022-10-15T09:41:57;22.98;;;17.38;;
13855;SDS011;6998;53.608;9.958;2022-10-15T09:44:31;26.25;;;16.60;;
13855;SDS011;6998;53.608;9.958;2022-10-15T09:47:01;23.83;;;17.42;;
13855;SDS011;6998;53.608;9.958;2022-10-15T09:49:40;22.55;;;16.35;;
13855;SDS011;6998;53.608;9.958;2022-10-15T09:52:10;23.23;;;16.55;;
13855;SDS011;6998;53.608;9.958;2022-10-15T09:54:42;23.67;;;16.70;;
13855;SDS011;6998;53.608;9.958;2022-10-15T09:57:13;21.92;;;16.00;;
13855;SDS011;6998;53.608;9.958;2022-10-15T09:59:50;20.05;;;14.88;;
13855;SDS011;6998;53.608;9.958;2022-10-15T10:02:19;21.65;;;15.65;;
13855;SDS011;6998;53.608;9.958;2022-10-15T10:04:47;21.05;;;16.10;;
13855;SDS011;6998;53.608;9.958;2022-10-15T10:07:28;19.80;;;15.27;;
13855;SDS011;6998;53.608;9.958;2022-10-15T10:09:58;21.80;;;15.48;;
13855;SDS011;6998;53.608;9.958;2022-10-15T10:12:27;22.60;;;15.30;;
13855;SDS011;6998;53.608;9.958;2022-10-15T10:14:56;19.42;;;15.10;;
13855;SDS011;6998;53.608;9.958;2022-10-15T10:17:24;24.15;;;16.20;;
13855;SDS011;6998;53.608;9.958;2022-10-15T10:20:04;21.65;;;13.70;;
13855;SDS011;6998;53.608;9.958;2022-10-15T10:22:44;23.13;;;14.10;;
13855;SDS011;6998;53.608;9.958;2022-10-15T10:25:22;19.80;;;15.27;;
13855;SDS011;6998;53.608;9.958;2022-10-15T10:27:58;19.10;;;14.75;;
13855;SDS011;6998;53.608;9.958;2022-10-15T10:30:34;19.58;;;14.63;;
13855;SDS011;6998;53.608;9.958;2022-10-15T10:33:06;18.45;;;14.45;;
13855;SDS011;6998;53.608;9.958;2022-10-15T10:35:42;20.05;;;13.88;;
13855;SDS011;6998;53.608;9.958;2022-10-15T10:38:18;21.10;;;14.40;;
13855;SDS011;6998;53.608;9.958;2022-10-15T10:40:49;20.10;;;13.95;;
13855;SDS011;6998;53.608;9.958;2022-10-15T10:43:17;19.58;;;13.63;;
13855;SDS011;6998;53.608;9.958;2022-10-15T10:45:52;17.60;;;12.30;;
13855;SDS011;6998;53.608;9.958;2022-10-15T10:48:21;15.73;;;12.15;;
13855;SDS011;6998;53.608;9.958;2022-10-15T10:51:00;18.23;;;11.23;;
13855;SDS011;6998;53.608;9.958;2022-10-15T10:53:30;14.10;;;10.45;;
13855;SDS011;6998;53.608;9.958;2022-10-15T10:55:57;11.77;;;8.73;;
13855;SDS011;6998;53.608;9.958;2022-10-15T10:58:26;11.90;;;8.10;;
13855;SDS011;6998;53.608;9.958;2022-10-15T11:00:58;13.57;;;7.15;;
13855;SDS011;6998;53.608;9.958;2022-10-15T11:03:32;10.77;;;7.45;;
13855;SDS011;6998;53.608;9.958;2022-10-15T11:06:08;9.25;;;6.57;;
13855;SDS011;6998;53.608;9.958;2022-10-15T11:08:48;11.35;;;7.97;;
13855;SDS011;6998;53.608;9.958;2022-10-15T11:11:25;8.88;;;7.07;;
13855;SDS011;6998;53.608;9.958;2022-10-15T11:14:01;11.75;;;8.13;;
13855;SDS011;6998;53.608;9.958;2022-10-15T11:16:36;13.93;;;9.35;;
13855;SDS011;6998;53.608;9.958;2022-10-15T11:19:16;11.95;;;8.38;;
13855;SDS011;6998;53.608;9.958;2022-10-15T11:21:51;13.98;;;8.63;;
13855;SDS011;6998;53.608;9.958;2022-10-15T11:24:31;9.32;;;7.82;;
13855;SDS011;6998;53.608;9.958;2022-10-15T11:27:11;12.57;;;8.00;;
13855;SDS011;6998;53.608;9.958;2022-10-15T11:29:51;9.73;;;5.93;;
13855;SDS011;6998;53.608;9.958;2022-10-15T11:32:28;8.80;;;5.43;;
13855;SDS011;6998;53.608;9.958;2022-10-15T11:35:26;9.15;;;5.60;;
13855;SDS011;6998;53.608;9.958;2022-10-15T11:38:03;6.97;;;4.90;;
13855;SDS011;6998;53.608;9.958;2022-10-15T11:40:46;8.25;;;5.05;;
13855;SDS011;6998;53.608;9.958;2022-10-15T11:43:27;6.43;;;4.35;;
13855;SDS011;6998;53.608;9.958;2022-10-15T11:46:07;6.95;;;4.65;;
13855;SDS011;6998;53.608;9.958;2022-10-15T11:48:43;7.18;;;5.25;;
13855;SDS011;6998;53.608;9.958;2022-10-15T11:51:21;8.35;;;4.57;;
13855;SDS011;6998;53.608;9.958;2022-10-15T11:54:06;6.13;;;4.88;;
13855;SDS011;6998;53.608;9.958;2022-10-15T11:56:44;7.20;;;4.68;;
13855;SDS011;6998;53.608;9.958;2022-10-15T11:59:16;5.70;;;3.22;;
13855;SDS011;6998;53.608;9.958;2022-10-15T12:01:53;4.95;;;2.90;;
13855;SDS011;6998;53.608;9.958;2022-10-15T12:04:28;11.10;;;3.10;;
13855;SDS011;6998;53.608;9.958;2022-10-15T12:06:59;5.68;;;2.78;;
13855;SDS011;6998;53.608;9.958;2022-10-15T12:09:29;7.63;;;3.25;;
13855;SDS011;6998;53.608;9.958;2022-10-15T12:12:02;3.55;;;2.40;;
13855;SDS011;6998;53.608;9.958;2022-10-15T12:14:35;5.03;;;3.00;;
13855;SDS011;6998;53.608;9.958;2022-10-15T12:17:07;5.72;;;3.13;;
13855;SDS011;6998;53.608;9.958;2022-10-15T12:19:43;4.95;;;3.00;;
13855;SDS011;6998;53.608;9.958;2022-10-15T12:22:29;4.47;;;2.95;;
13855;SDS011;6998;53.608;9.958;2022-10-15T12:24:57;4.75;;;3.00;;
13855;SDS011;6998;53.608;9.958;2022-10-15T12:27:27;5.45;;;2.72;;
13855;SDS011;6998;53.608;9.958;2022-10-15T12:32:47;8.20;;;3.20;;
13855;SDS011;6998;53.608;9.958;2022-10-15T12:35:22;5.25;;;3.22;;
13855;SDS011;6998;53.608;9.958;2022-10-15T12:37:56;4.88;;;2.95;;
13855;SDS011;6998;53.608;9.958;2022-10-15T12:40:36;5.18;;;3.45;;
13855;SDS011;6998;53.608;9.958;2022-10-15T12:43:10;4.97;;;3.20;;
13855;SDS011;6998;53.608;9.958;2022-10-15T12:45:40;5.03;;;3.42;;
13855;SDS011;6998;53.608;9.958;2022-10-15T13:06:11;6.13;;;3.80;;
13855;SDS011;6998;53.608;9.958;2022-10-15T13:08:49;5.65;;;4.30;;
13855;SDS011;6998;53.608;9.958;2022-10-15T13:11:20;4.93;;;4.18;;
13855;SDS011;6998;53.608;9.958;2022-10-15T13:13:49;5.05;;;4.03;;
13855;SDS011;6998;53.608;9.958;2022-10-15T13:16:24;5.13;;;3.90;;
13855;SDS011;6998;53.608;9.958;2022-10-15T13:18:51;5.40;;;3.92;;
13855;SDS011;6998;53.608;9.958;2022-10-15T13:21:20;4.40;;;4.00;;
13855;SDS011;6998;53.608;9.958;2022-10-15T13:23:48;4.70;;;4.20;;
13855;SDS011;6998;53.608;9.958;2022-10-15T13:26:17;6.70;;;4.88;;
13855;SDS011;6998;53.608;9.958;2022-10-15T13:28:45;6.50;;;4.45;;
13855;SDS011;6998;53.608;9.958;2022-10-15T13:31:20;5.63;;;4.47;;
13855;SDS011;6998;53.608;9.958;2022-10-15T13:33:50;6.25;;;4.60;;
13855;SDS011;6998;53.608;9.958;2022-10-15T13:36:20;8.30;;;4.75;;
13855;SDS011;6998;53.608;9.958;2022-10-15T13:38:55;6.68;;;4.80;;
13855;SDS011;6998;53.608;9.958;2022-10-15T13:41:25;5.10;;;4.60;;
13855;SDS011;6998;53.608;9.958;2022-10-15T13:43:54;7.28;;;5.15;;
13855;SDS011;6998;53.608;9.958;2022-10-15T13:46:25;5.93;;;5.32;;
13855;SDS011;6998;53.608;9.958;2022-10-15T13:48:58;7.50;;;5.97;;
13855;SDS011;6998;53.608;9.958;2022-10-15T13:51:28;7.68;;;5.43;;
13855;SDS011;6998;53.608;9.958;2022-10-15T13:53:59;8.68;;;5.20;;
13855;SDS011;6998;53.608;9.958;2022-10-15T13:56:27;7.50;;;5.80;;
13855;SDS011;6998;53.608;9.958;2022-10-15T13:58:56;7.65;;;5.43;;
13855;SDS011;6998;53.608;9.958;2022-10-15T14:01:25;9.98;;;6.90;;
13855;SDS011;6998;53.608;9.958;2022-10-15T14:03:53;9.98;;;7.35;;
13855;SDS011;6998;53.608;9.958;2022-10-15T14:06:23;9.38;;;7.18;;
13855;SDS011;6998;53.608;9.958;2022-10-15T14:08:53;8.50;;;7.43;;
13855;SDS011;6998;53.608;9.958;2022-10-15T14:11:21;9.10;;;7.60;;
13855;SDS011;6998;53.608;9.958;2022-10-15T14:13:49;8.13;;;7.30;;
13855;SDS011;6998;53.608;9.958;2022-10-15T14:16:18;7.93;;;7.13;;
13855;SDS011;6998;53.608;9.958;2022-10-15T14:18:49;8.27;;;7.10;;
13855;SDS011;6998;53.608;9.958;2022-10-15T14:21:18;9.30;;;6.78;;
13855;SDS011;6998;53.608;9.958;2022-10-15T14:24:00;8.55;;;7.30;;
13855;SDS011;6998;53.608;9.958;2022-10-15T14:26:29;7.90;;;7.10;;
13855;SDS011;6998;53.608;9.958;2022-10-15T14:28:57;10.77;;;7.72;;
13855;SDS011;6998;53.608;9.958;2022-10-15T14:31:27;11.55;;;9.88;;
13855;SDS011;6998;53.608;9.958;2022-10-15T14:33:58;11.10;;;9.90;;
13855;SDS011;6998;53.608;9.958;2022-10-15T14:36:25;9.85;;;8.85;;
13855;SDS011;6998;53.608;9.958;2022-10-15T14:38:56;11.10;;;9.15;;
13855;SDS011;6998;53.608;9.958;2022-10-15T14:41:53;11.00;;;9.50;;
13855;SDS011;6998;53.608;9.958;2022-10-15T14:44:24;9.75;;;8.75;;
13855;SDS011;6998;53.608;9.958;2022-10-15T14:46:52;9.40;;;7.90;;
13855;SDS011;6998;53.608;9.958;2022-10-15T14:49:26;9.60;;;8.60;;
13855;SDS011;6998;53.608;9.958;2022-10-15T14:51:57;11.02;;;9.50;;
13855;SDS011;6998;53.608;9.958;2022-10-15T14:54:29;11.90;;;9.60;;
13855;SDS011;6998;53.608;9.958;2022-10-15T14:57:03;14.18;;;11.02;;
13855;SDS011;6998;53.608;9.958;2022-10-15T14:59:36;11.55;;;10.45;;
13855;SDS011;6998;53.608;9.958;2022-10-15T15:02:03;14.75;;;11.95;;
13855;SDS011;6998;53.608;9.958;2022-10-15T15:04:34;13.15;;;11.57;;
13855;SDS011;6998;53.608;9.958;2022-10-15T15:07:11;12.55;;;11.18;;
13855;SDS011;6998;53.608;9.958;2022-10-15T15:09:47;15.30;;;12.10;;
13855;SDS011;6998;53.608;9.958;2022-10-15T15:12:16;13.35;;;10.75;;
13855;SDS011;6998;53.608;9.958;2022-10-15T15:14:45;12.60;;;11.32;;
13855;SDS011;6998;53.608;9.958;2022-10-15T15:17:13;12.75;;;10.90;;
13855;SDS011;6998;53.608;9.958;2022-10-15T15:19:42;13.20;;;11.90;;